This is the latest recevied weather packets stored in our database for station/object PY2UEP-1. If no packets are shown the sender has not sent any weather packets the latest 10 day(s).
| Time | Temp. | Humidity | Pressure | Rain* | Wind** | Luminosity | Snow |
|---|---|---|---|---|---|---|---|
| 1787925902 | 27.78° C | 54% | 1015.4 hPa | 0 mm | - | - | - |
| 1787925601 | 27.78° C | 54% | 1015.6 hPa | 0 mm | - | - | - |
| 1787925301 | 27.78° C | 55% | 1015.7 hPa | 0 mm | - | - | - |
| 1787925002 | 27.22° C | 56% | 1015.8 hPa | 0 mm | - | - | - |
| 1787924701 | 27.22° C | 56% | 1015.8 hPa | 0 mm | - | - | - |
| 1787924401 | 26.67° C | 58% | 1016 hPa | 0 mm | - | - | - |
| 1787924102 | 26.67° C | 57% | 1016.2 hPa | 0 mm | - | - | - |
| 1787923807 | 26.67° C | 57% | 1016.2 hPa | 0 mm | - | - | - |
| 1787923501 | 26.11° C | 59% | 1016.2 hPa | 0 mm | - | - | - |
| 1787923216 | 25.56° C | 61% | 1016.4 hPa | 0 mm | - | - | - |
| 1787923126 | 25.56° C | 61% | 1016.4 hPa | 0 mm | - | - | - |
| 1787922901 | 25.56° C | 61% | 1016.4 hPa | 0 mm | - | - | - |
| 1787922661 | 25.56° C | 61% | 1016.4 hPa | 0 mm | - | - | - |
| 1787794809 | 17.22° C | 99% | 1019.9 hPa | 8.64 mm | - | - | - |
| 1787794509 | 17.22° C | 99% | 1019.9 hPa | 8.64 mm | - | - | - |
| 1787794209 | 17.22° C | 99% | 1019.9 hPa | 8.64 mm | - | - | - |
| 1787793909 | 17.22° C | 99% | 1019.9 hPa | 8.64 mm | - | - | - |
| 1787793609 | 17.22° C | 99% | 1019.9 hPa | 8.64 mm | - | - | - |
| 1787793309 | 17.22° C | 99% | 1020.1 hPa | 8.64 mm | - | - | - |
| 1787793009 | 17.22° C | 99% | 1020.1 hPa | 8.64 mm | - | - | - |
| 1787792710 | 17.78° C | 99% | 1020.1 hPa | 8.38 mm | - | - | - |
| 1787792409 | 17.78° C | 99% | 1020.1 hPa | 8.38 mm | - | - | - |
| 1787792109 | 17.78° C | 99% | 1020.1 hPa | 8.38 mm | - | - | - |
| 1787791809 | 17.78° C | 99% | 1020.2 hPa | 8.38 mm | - | - | - |
| 1787791509 | 17.78° C | 99% | 1020.3 hPa | 8.38 mm | - | - | - |
* Rain since midnight (hover to see other rain measurements)
** Current wind speed in m/s (hover to see current wind gust speed)